CDT,Max TemperatureF,Mean TemperatureF,Min TemperatureF,Max Dew PointF,MeanDew PointF,Min DewpointF,Max Humidity, Mean Humidity, Min Humidity, Max Sea Level PressureIn, Mean Sea Level PressureIn, Min Sea Level PressureIn, Max VisibilityMiles, Mean VisibilityMiles, Min VisibilityMiles, Max Wind SpeedMPH, Mean Wind SpeedMPH, Max Gust SpeedMPH,PrecipitationIn, CloudCover, Events, WindDirDegrees
2013-9-1,103,90,76,72,68,63,82,55,27,29.91,29.84,29.77,10,10,9,20,9,26,0.00,2,,169
2013-9-2,95,85,75,73,69,66,79,60,41,29.98,29.90,29.84,10,10,10,15,4,20,0.00,6,,255
2013-9-3,104,91,77,71,68,63,82,55,27,29.96,29.91,29.84,10,10,10,17,6,23,0.00,3,,93
2013-9-4,100,89,77,70,66,62,76,55,33,30.06,29.99,29.94,10,10,10,16,9,26,0.00,1,,84
2013-9-5,101,87,72,66,60,53,68,45,22,30.11,30.05,29.98,10,10,10,17,7,24,0.00,1,,64
2013-9-6,101,86,70,68,61,53,73,48,22,30.09,30.01,29.94,10,10,10,15,5,25,0.00,1,,136
2013-9-7,99,85,71,71,67,59,84,56,28,30.05,29.98,29.91,10,10,8,23,6,28,0.00,2,,170
2013-9-8,99,85,70,70,66,62,90,62,33,29.99,29.94,29.88,10,10,10,16,7,21,0.00,1,,159
2013-9-9,98,84,69,69,64,58,84,57,29,30.03,29.97,29.92,10,10,10,22,9,29,0.00,1,,145
2013-9-10,97,84,70,70,64,60,79,55,31,30.12,30.05,29.99,10,10,10,18,5,28,0.00,5,,140
2013-9-11,93,84,74,70,68,66,79,63,47,30.11,30.06,30.00,10,10,10,16,4,25,0.00,6,Thunderstorm,154
2013-9-12,99,84,69,70,66,58,93,60,26,30.06,29.99,29.89,10,9,6,13,5,18,0.00,2,,90
2013-9-13,98,88,77,73,69,61,79,57,35,29.94,29.89,29.81,10,9,6,23,7,26,0.06,3,,73
2013-9-14,91,80,69,59,55,49,61,46,30,30.00,29.95,29.90,10,10,10,17,9,23,0.00,3,,71
2013-9-15,96,80,63,62,56,48,63,47,31,30.05,30.00,29.96,10,10,10,15,6,20,0.00,4,,92
2013-9-16,96,84,71,70,64,60,74,55,35,30.09,30.03,29.97,10,10,10,13,4,24,0.00,6,,97
2013-9-17,96,86,75,68,66,61,74,58,41,30.09,30.02,29.95,10,10,10,17,5,25,0.00,6,,94
2013-9-18,97,86,74,70,67,61,79,55,30,30.03,29.97,29.90,10,10,10,20,8,23,0.00,7,,138
2013-9-19,97,86,74,74,70,65,94,65,35,30.01,29.94,29.86,10,8,1,26,9,33,1.41,6,Rain-Thunderstorm,130
2013-9-20,77,74,70,75,73,68,100,97,93,29.93,29.85,29.78,10,7,1,25,7,30,3.18,8,Rain,117
2013-9-21,85,75,64,70,62,49,93,63,32,29.90,29.85,29.81,10,10,10,20,11,24,0.01,5,,22
2013-9-22,84,72,59,55,52,47,80,54,28,29.92,29.86,29.80,10,10,10,15,8,24,0.00,0,,60
2013-9-23,87,72,57,61,56,53,86,61,36,29.88,29.83,29.77,10,10,10,15,4,20,0.00,1,,105
2013-9-24,94,82,69,64,60,53,73,51,28,29.87,29.83,29.79,10,10,7,16,5,40,0.00,2,,345
2013-9-25,92,78,63,59,55,48,78,51,23,29.87,29.82,29.78,10,10,10,16,4,23,0.00,0,,325
2013-9-26,93,77,60,64,58,53,90,59,28,29.93,29.88,29.83,10,10,10,16,5,18,0.00,0,,121
2013-9-27,91,78,64,66,62,60,93,66,38,30.00,29.94,29.91,10,10,10,18,6,23,0.00,1,,132
2013-9-28,91,79,66,74,68,63,94,71,47,30.03,29.98,29.91,10,8,1,25,9,29,3.46,5,Rain-Thunderstorm,113
2013-9-29,79,76,73,76,73,71,94,91,88,29.99,29.94,29.89,10,7,1,16,6,24,1.18,8,Rain,178
2013-9-30,85,79,72,72,71,69,93,77,61,29.92,29.88,29.83,10,9,3,22,7,26,0.01,7,Rain,163